PrentiSS Brown — WDE6848 — position and weather

sailwx.info

Track history (hours):
 
Tides and Currents Weather Stations Pressure Air Temp Water Temp Dewpoint Dewpoint Depression Visibility Wind Speed Wind Dir Waves Ship Positions

PrentiSS Brown

Owner: Port City Marine Services Inc, Muskegon, MI. More information available from US FCC via Universal Licensing System and Coast Guard Vessel Documentation Center.

Last reported at 2018-Jul-19 13:41 UTC. Time now 2018-Jul-22 22:13 UTC.
Position N 45°14' W 085°37'.

; draft 7 m.

Type: Other ship. MMSI: 366922280.

Date/timePositionNaut miles runAvg speedWind from/ knotsBaromVisibWave heightAir tempDewpointWater temp
2018-Jul-19 13:41N 45°14' W 085°37'2 8.5
2018-Jul-19 13:29N 45°15' W 085°35'4 8.3
2018-Jul-19 13:01N 45°16' W 085°30'4 8.3
2018-Jul-19 12:30N 45°18' W 085°24'4 8.2
2018-Jul-19 12:00N 45°20' W 085°19'2 3.5
2018-Jul-19 11:30N 45°19' W 085°17'0 0.4
2018-Jul-19 10:58N 45°19' W 085°18'0 0.0
2018-Jul-19 10:28N 45°19' W 085°18'0 0.0
2018-Jul-19 09:58N 45°19' W 085°18'0 0.0
2018-Jul-19 09:28N 45°19' W 085°18'0 0.0
2018-Jul-19 08:58N 45°19' W 085°18'0 0.0
2018-Jul-19 08:28N 45°19' W 085°18'0 0.0
2018-Jul-19 07:58N 45°19' W 085°18'0 0.0
2018-Jul-19 07:25N 45°19' W 085°18'0 0.0
2018-Jul-19 06:58N 45°19' W 085°18'0 0.0
2018-Jul-19 06:28N 45°19' W 085°18'0 0.0
2018-Jul-19 05:55N 45°19' W 085°18'0 0.0
2018-Jul-19 05:28N 45°19' W 085°18'0 0.0
2018-Jul-19 04:58N 45°19' W 085°18'0 0.0
2018-Jul-19 04:28N 45°19' W 085°18'0 0.0
2018-Jul-19 03:58N 45°19' W 085°18'0 0.0
2018-Jul-19 03:28N 45°19' W 085°18'0 0.0
2018-Jul-19 02:58N 45°19' W 085°18'0 0.0
2018-Jul-19 02:28N 45°19' W 085°18'0 0.0
2018-Jul-19 01:58N 45°19' W 085°18'0 0.0
2018-Jul-19 01:28N 45°19' W 085°18'0 0.0
2018-Jul-19 00:58N 45°19' W 085°18'0 0.0
2018-Jul-19 00:28N 45°19' W 085°18'0 0.0
2018-Jul-18 23:49N 45°19' W 085°18'0 0.0
2018-Jul-18 23:28N 45°19' W 085°18'0 0.0
2018-Jul-18 22:55N 45°19' W 085°18'0 0.0
2018-Jul-18 22:28N 45°19' W 085°18'0 0.0
2018-Jul-18 21:55N 45°19' W 085°18'0 0.0
2018-Jul-18 21:25N 45°19' W 085°18'0 0.0
2018-Jul-18 20:58N 45°19' W 085°18'0 0.0
2018-Jul-18 20:28N 45°19' W 085°18'0 0.0
2018-Jul-18 19:58N 45°19' W 085°18'0 0.0
2018-Jul-18 19:28N 45°19' W 085°18'0 0.0
2018-Jul-18 18:58N 45°19' W 085°18'0 0.0
2018-Jul-18 18:28N 45°19' W 085°18'0 0.0
2018-Jul-18 17:58N 45°19' W 085°18'0 0.0
2018-Jul-18 17:28N 45°19' W 085°18'0 0.0
2018-Jul-18 16:58N 45°19' W 085°18'0 0.0
2018-Jul-18 16:28N 45°19' W 085°18'0 0.0
2018-Jul-18 15:58N 45°19' W 085°18'0 0.0
2018-Jul-18 15:28N 45°19' W 085°18'0 0.0
2018-Jul-18 14:58N 45°19' W 085°18'0 0.0
2018-Jul-18 14:28N 45°19' W 085°18'0 0.0
2018-Jul-18 13:28N 45°19' W 085°18'0 0.0
2018-Jul-18 12:58N 45°19' W 085°18'0 0.0
2018-Jul-18 12:28N 45°19' W 085°18'0 0.0
2018-Jul-18 11:58N 45°19' W 085°18'0 0.0
2018-Jul-18 11:28N 45°19' W 085°18'0 0.0
2018-Jul-18 10:28N 45°19' W 085°18'0 0.0
2018-Jul-18 09:55N 45°19' W 085°18'0 0.0
2018-Jul-18 09:28N 45°19' W 085°18'0 0.0
2018-Jul-18 08:58N 45°19' W 085°18'0 0.0
2018-Jul-18 08:28N 45°19' W 085°18'0 0.0
2018-Jul-18 07:58N 45°19' W 085°18'0 0.0
2018-Jul-18 07:28N 45°19' W 085°18'0 0.0
2018-Jul-18 06:58N 45°19' W 085°18'0 0.0
2018-Jul-18 06:28N 45°19' W 085°18'0 0.0
2018-Jul-18 05:58N 45°19' W 085°18'0 0.0
2018-Jul-18 05:28N 45°19' W 085°18'0 0.0
2018-Jul-18 04:55N 45°19' W 085°18'0 0.0
2018-Jul-18 04:28N 45°19' W 085°18'0 0.0
2018-Jul-18 03:59N 45°19' W 085°18'0 0.8
2018-Jul-18 03:31N 45°19' W 085°17'2 4.6
2018-Jul-18 03:00N 45°20' W 085°21'4 8.5
2018-Jul-18 02:30N 45°18' W 085°26'  
2018-Jul-15 04:02N 44°57' W 086°07'4 8.1
2018-Jul-15 03:35N 44°58' W 086°03'2 8.1
2018-Jul-15 03:22N 44°59' W 086°01'22 8.0
2018-Jul-15 00:34N 45°14' W 085°37'2 7.8
2018-Jul-15 00:16N 45°15' W 085°34'2 8.3
2018-Jul-15 00:00N 45°16' W 085°31'4 8.1
2018-Jul-14 23:30N 45°18' W 085°26'4 7.9
2018-Jul-14 23:00N 45°20' W 085°21'3 5.2
2018-Jul-14 22:30N 45°19' W 085°17'0 0.8
2018-Jul-14 22:01N 45°19' W 085°18'0 0.0
2018-Jul-14 21:30N 45°19' W 085°18'0 0.0
2018-Jul-14 21:00N 45°19' W 085°18'0 0.0
2018-Jul-14 20:30N 45°19' W 085°18'0 0.0
2018-Jul-14 20:00N 45°19' W 085°18'0 0.0
2018-Jul-14 19:30N 45°19' W 085°18'0 0.0
2018-Jul-14 18:59N 45°19' W 085°18'0 0.0
2018-Jul-14 18:30N 45°19' W 085°18'0 0.0
2018-Jul-14 18:00N 45°19' W 085°18'0 0.0
2018-Jul-14 17:30N 45°19' W 085°18'0 0.0
2018-Jul-14 17:00N 45°19' W 085°18'0 0.0
2018-Jul-14 16:30N 45°19' W 085°18'0 0.0
2018-Jul-14 16:00N 45°19' W 085°18'0 0.0
2018-Jul-14 15:28N 45°19' W 085°18'0 0.1
2018-Jul-14 15:01N 45°19' W 085°18'5 5.4
2018-Jul-14 14:00N 45°18' W 085°25'5 9.3
2018-Jul-14 13:30N 45°16' W 085°31'5 9.2
2018-Jul-14 13:01N 45°14' W 085°37'  
2018-Jul-11 13:48N 45°06' W 085°48'6 8.2
2018-Jul-11 13:08N 45°10' W 085°43'1 8.4
2018-Jul-11 13:00N 45°11' W 085°42'4 8.3
2018-Jul-11 12:30N 45°14' W 085°37'4 8.0
2018-Jul-11 12:00N 45°16' W 085°32'4 7.9
2018-Jul-11 11:30N 45°17' W 085°27'4 7.9
2018-Jul-11 11:00N 45°19' W 085°22'3 6.3
2018-Jul-11 10:30N 45°19' W 085°17'0 1.0
2018-Jul-11 10:00N 45°19' W 085°18'0 0.0
2018-Jul-11 09:30N 45°19' W 085°18'0 0.0
2018-Jul-11 09:00N 45°19' W 085°18'0 0.0
2018-Jul-11 08:30N 45°19' W 085°18'0 0.0
2018-Jul-11 08:00N 45°19' W 085°18'0 0.0
2018-Jul-11 07:30N 45°19' W 085°18'0 0.1
2018-Jul-11 07:00N 45°19' W 085°18'0 0.0
2018-Jul-11 06:30N 45°19' W 085°18'0 0.0
2018-Jul-11 06:00N 45°19' W 085°18'0 0.0
2018-Jul-11 05:30N 45°19' W 085°18'0 0.0
2018-Jul-11 05:00N 45°19' W 085°18'0 0.0
2018-Jul-11 04:30N 45°19' W 085°18'0 0.1
2018-Jul-11 04:00N 45°19' W 085°18'1 3.0
2018-Jul-11 03:30N 45°20' W 085°19'5 9.4
2018-Jul-11 03:00N 45°18' W 085°25'5 9.5
2018-Jul-11 02:30N 45°16' W 085°31'5 9.5
2018-Jul-11 02:00N 45°14' W 085°37'5 9.1
2018-Jul-11 01:30N 45°11' W 085°43'  
Track history (hours):
 
Tides and Currents Weather Stations Pressure Air Temp Water Temp Dewpoint Dewpoint Depression Visibility Wind Speed Wind Dir Waves Ship Positions

PrentiSS Brown

Owner: Port City Marine Services Inc, Muskegon, MI. More information available from US FCC via Universal Licensing System and Coast Guard Vessel Documentation Center.

Last reported at 2018-Jul-19 13:41 UTC. Time now 2018-Jul-22 22:13 UTC.
Position N 45°14' W 085°37'.

; draft 7 m.

Type: Other ship. MMSI: 366922280.

Date/timePositionNaut miles runAvg speedWind from/ knotsBaromVisibWave heightAir tempDewpointWater temp
2018-Jul-19 13:41N 45°14' W 085°37'2 8.5
2018-Jul-19 13:29N 45°15' W 085°35'4 8.3
2018-Jul-19 13:01N 45°16' W 085°30'4 8.3
2018-Jul-19 12:30N 45°18' W 085°24'4 8.2
2018-Jul-19 12:00N 45°20' W 085°19'2 3.5
2018-Jul-19 11:30N 45°19' W 085°17'0 0.4
2018-Jul-19 10:58N 45°19' W 085°18'0 0.0
2018-Jul-19 10:28N 45°19' W 085°18'0 0.0
2018-Jul-19 09:58N 45°19' W 085°18'0 0.0
2018-Jul-19 09:28N 45°19' W 085°18'0 0.0
2018-Jul-19 08:58N 45°19' W 085°18'0 0.0
2018-Jul-19 08:28N 45°19' W 085°18'0 0.0
2018-Jul-19 07:58N 45°19' W 085°18'0 0.0
2018-Jul-19 07:25N 45°19' W 085°18'0 0.0
2018-Jul-19 06:58N 45°19' W 085°18'0 0.0
2018-Jul-19 06:28N 45°19' W 085°18'0 0.0
2018-Jul-19 05:55N 45°19' W 085°18'0 0.0
2018-Jul-19 05:28N 45°19' W 085°18'0 0.0
2018-Jul-19 04:58N 45°19' W 085°18'0 0.0
2018-Jul-19 04:28N 45°19' W 085°18'0 0.0
2018-Jul-19 03:58N 45°19' W 085°18'0 0.0
2018-Jul-19 03:28N 45°19' W 085°18'0 0.0
2018-Jul-19 02:58N 45°19' W 085°18'0 0.0
2018-Jul-19 02:28N 45°19' W 085°18'0 0.0
2018-Jul-19 01:58N 45°19' W 085°18'0 0.0
2018-Jul-19 01:28N 45°19' W 085°18'0 0.0
2018-Jul-19 00:58N 45°19' W 085°18'0 0.0
2018-Jul-19 00:28N 45°19' W 085°18'0 0.0
2018-Jul-18 23:49N 45°19' W 085°18'0 0.0
2018-Jul-18 23:28N 45°19' W 085°18'0 0.0
2018-Jul-18 22:55N 45°19' W 085°18'0 0.0
2018-Jul-18 22:28N 45°19' W 085°18'0 0.0
2018-Jul-18 21:55N 45°19' W 085°18'0 0.0
2018-Jul-18 21:25N 45°19' W 085°18'0 0.0
2018-Jul-18 20:58N 45°19' W 085°18'0 0.0
2018-Jul-18 20:28N 45°19' W 085°18'0 0.0
2018-Jul-18 19:58N 45°19' W 085°18'0 0.0
2018-Jul-18 19:28N 45°19' W 085°18'0 0.0
2018-Jul-18 18:58N 45°19' W 085°18'0 0.0
2018-Jul-18 18:28N 45°19' W 085°18'0 0.0
2018-Jul-18 17:58N 45°19' W 085°18'0 0.0
2018-Jul-18 17:28N 45°19' W 085°18'0 0.0
2018-Jul-18 16:58N 45°19' W 085°18'0 0.0
2018-Jul-18 16:28N 45°19' W 085°18'0 0.0
2018-Jul-18 15:58N 45°19' W 085°18'0 0.0
2018-Jul-18 15:28N 45°19' W 085°18'0 0.0
2018-Jul-18 14:58N 45°19' W 085°18'0 0.0
2018-Jul-18 14:28N 45°19' W 085°18'0 0.0
2018-Jul-18 13:28N 45°19' W 085°18'0 0.0
2018-Jul-18 12:58N 45°19' W 085°18'0 0.0
2018-Jul-18 12:28N 45°19' W 085°18'0 0.0
2018-Jul-18 11:58N 45°19' W 085°18'0 0.0
2018-Jul-18 11:28N 45°19' W 085°18'0 0.0
2018-Jul-18 10:28N 45°19' W 085°18'0 0.0
2018-Jul-18 09:55N 45°19' W 085°18'0 0.0
2018-Jul-18 09:28N 45°19' W 085°18'0 0.0
2018-Jul-18 08:58N 45°19' W 085°18'0 0.0
2018-Jul-18 08:28N 45°19' W 085°18'0 0.0
2018-Jul-18 07:58N 45°19' W 085°18'0 0.0
2018-Jul-18 07:28N 45°19' W 085°18'0 0.0
2018-Jul-18 06:58N 45°19' W 085°18'0 0.0
2018-Jul-18 06:28N 45°19' W 085°18'0 0.0
2018-Jul-18 05:58N 45°19' W 085°18'0 0.0
2018-Jul-18 05:28N 45°19' W 085°18'0 0.0
2018-Jul-18 04:55N 45°19' W 085°18'0 0.0
2018-Jul-18 04:28N 45°19' W 085°18'0 0.0
2018-Jul-18 03:59N 45°19' W 085°18'0 0.8
2018-Jul-18 03:31N 45°19' W 085°17'2 4.6
2018-Jul-18 03:00N 45°20' W 085°21'4 8.5
2018-Jul-18 02:30N 45°18' W 085°26'  
2018-Jul-15 04:02N 44°57' W 086°07'4 8.1
2018-Jul-15 03:35N 44°58' W 086°03'2 8.1
2018-Jul-15 03:22N 44°59' W 086°01'22 8.0
2018-Jul-15 00:34N 45°14' W 085°37'2 7.8
2018-Jul-15 00:16N 45°15' W 085°34'2 8.3
2018-Jul-15 00:00N 45°16' W 085°31'4 8.1
2018-Jul-14 23:30N 45°18' W 085°26'4 7.9
2018-Jul-14 23:00N 45°20' W 085°21'3 5.2
2018-Jul-14 22:30N 45°19' W 085°17'0 0.8
2018-Jul-14 22:01N 45°19' W 085°18'0 0.0
2018-Jul-14 21:30N 45°19' W 085°18'0 0.0
2018-Jul-14 21:00N 45°19' W 085°18'0 0.0
2018-Jul-14 20:30N 45°19' W 085°18'0 0.0
2018-Jul-14 20:00N 45°19' W 085°18'0 0.0
2018-Jul-14 19:30N 45°19' W 085°18'0 0.0
2018-Jul-14 18:59N 45°19' W 085°18'0 0.0
2018-Jul-14 18:30N 45°19' W 085°18'0 0.0
2018-Jul-14 18:00N 45°19' W 085°18'0 0.0
2018-Jul-14 17:30N 45°19' W 085°18'0 0.0
2018-Jul-14 17:00N 45°19' W 085°18'0 0.0
2018-Jul-14 16:30N 45°19' W 085°18'0 0.0
2018-Jul-14 16:00N 45°19' W 085°18'0 0.0
2018-Jul-14 15:28N 45°19' W 085°18'0 0.1
2018-Jul-14 15:01N 45°19' W 085°18'5 5.4
2018-Jul-14 14:00N 45°18' W 085°25'5 9.3
2018-Jul-14 13:30N 45°16' W 085°31'5 9.2
2018-Jul-14 13:01N 45°14' W 085°37'  
2018-Jul-11 13:48N 45°06' W 085°48'6 8.2
2018-Jul-11 13:08N 45°10' W 085°43'1 8.4
2018-Jul-11 13:00N 45°11' W 085°42'4 8.3
2018-Jul-11 12:30N 45°14' W 085°37'4 8.0
2018-Jul-11 12:00N 45°16' W 085°32'4 7.9
2018-Jul-11 11:30N 45°17' W 085°27'4 7.9
2018-Jul-11 11:00N 45°19' W 085°22'3 6.3
2018-Jul-11 10:30N 45°19' W 085°17'0 1.0
2018-Jul-11 10:00N 45°19' W 085°18'0 0.0
2018-Jul-11 09:30N 45°19' W 085°18'0 0.0
2018-Jul-11 09:00N 45°19' W 085°18'0 0.0
2018-Jul-11 08:30N 45°19' W 085°18'0 0.0
2018-Jul-11 08:00N 45°19' W 085°18'0 0.0
2018-Jul-11 07:30N 45°19' W 085°18'0 0.1
2018-Jul-11 07:00N 45°19' W 085°18'0 0.0
2018-Jul-11 06:30N 45°19' W 085°18'0 0.0
2018-Jul-11 06:00N 45°19' W 085°18'0 0.0
2018-Jul-11 05:30N 45°19' W 085°18'0 0.0
2018-Jul-11 05:00N 45°19' W 085°18'0 0.0
2018-Jul-11 04:30N 45°19' W 085°18'0 0.1
2018-Jul-11 04:00N 45°19' W 085°18'1 3.0
2018-Jul-11 03:30N 45°20' W 085°19'5 9.4
2018-Jul-11 03:00N 45°18' W 085°25'5 9.5
2018-Jul-11 02:30N 45°16' W 085°31'5 9.5
2018-Jul-11 02:00N 45°14' W 085°37'5 9.1
2018-Jul-11 01:30N 45°11' W 085°43'  

Dump ship's entire track history